URMT

Stavropol Shpakovskoye Airport

Stavropol, Russian Federation
TAF URMT 171100Z 1712/1721 10008G14MPS 3100 BR OVC004 TEMPO 1712/1715 11011G17MPS 0800 FZFG OVC003 TEMPO 1715/1721 0400 FZDZ FZFG OVC002
Issued Valid From Valid To
Dec-17 @ 11:00 UTC
(an hour ago)
Dec-17 @ 12:00 UTC
(28 minutes ago)
Dec-17 @ 21:00 UTC
(in 9 hours)
Dec-17 @ 12:00 to Dec-17 @ 21:00
TAF URMT 171100Z 1712/1721 10008G14MPS 3100 BR OVC004
Wind Visibility Clouds Conditions
100° at 16 knots
 Gusting to 27 knots
3,106 meters
  • Overcast at 400' AGL
  • Mist
Temporary Dec-17 @ 12:00 to Dec-17 @ 15:00
TEMPO 1712/1715 11011G17MPS 0800 FZFG OVC003
Wind Visibility Clouds Conditions
110° at 21 knots
 Gusting to 33 knots
805 meters
  • Overcast at 300' AGL
  • Freezing
  • Fog
Temporary Dec-17 @ 15:00 to Dec-17 @ 21:00
TEMPO 1715/1721 0400 FZDZ FZFG OVC002
Visibility Clouds Conditions
402 meters
  • Overcast at 200' AGL
  • Freezing
  • Drizzle
  • Freezing
  • Fog
TAF URMT 171100Z 1712/1721 10008G14MPS 3100 BR OVC004 TEMPO 1712/1715 11011G17MPS 0800 FZFG OVC003 TEMPO 1715/1721 0400 FZDZ FZFG OVC002
Issued Dec-17 @ 11:00 UTC
(an hour ago)
Valid From Dec-17 @ 12:00 UTC
(28 minutes ago)
Valid To Dec-17 @ 21:00 UTC
(in 9 hours)
Dec-17 @ 12:00 - Dec-17 @ 21:00
Wind Visibility
100° at 16 knots
 Gusting to 27 knots
3,106 meters
Clouds
  • Overcast at 400' AGL
Conditions
  • Mist
Temporary Dec-17 @ 12:00 - Dec-17 @ 15:00
Wind Visibility
110° at 21 knots
 Gusting to 33 knots
805 meters
Clouds
  • Overcast at 300' AGL
Conditions
  • Freezing
  • Fog
Temporary Dec-17 @ 15:00 - Dec-17 @ 21:00
Clouds
  • Overcast at 200' AGL
Conditions
  • Freezing
  • Drizzle
  • Freezing
  • Fog